createdAt,value
2019-05-30T00:01:33.433Z,9.80
2019-05-30T00:04:04.939Z,9.80
2019-05-30T00:06:36.024Z,9.70
2019-05-30T00:09:10.060Z,9.60
2019-05-30T00:11:41.031Z,9.60
2019-05-30T00:14:11.976Z,9.60
2019-05-30T00:16:42.940Z,9.50
2019-05-30T00:19:13.881Z,9.70
2019-05-30T00:21:44.823Z,9.80
2019-05-30T00:24:16.892Z,9.80
2019-05-30T00:26:47.859Z,9.90
2019-05-30T00:29:18.800Z,9.90
2019-05-30T00:31:49.791Z,9.80
2019-05-30T00:34:20.785Z,9.80
2019-05-30T00:36:52.275Z,9.70
2019-05-30T00:39:23.319Z,9.80
2019-05-30T00:41:54.328Z,9.70
2019-05-30T00:44:25.229Z,9.80
2019-05-30T00:46:56.273Z,9.60
2019-05-30T00:49:29.782Z,9.70
2019-05-30T00:52:04.954Z,9.80
2019-05-30T00:54:36.164Z,9.90
2019-05-30T00:57:07.153Z,9.80
2019-05-30T00:59:38.127Z,9.80
2019-05-30T01:02:09.068Z,9.90
2019-05-30T01:04:40.183Z,9.90
2019-05-30T01:07:11.120Z,9.90
2019-05-30T01:09:42.186Z,9.70
2019-05-30T01:12:13.198Z,9.60
2019-05-30T01:14:44.461Z,9.50
2019-05-30T01:17:16.780Z,9.50
2019-05-30T01:19:47.823Z,9.40
2019-05-30T01:22:18.866Z,9.40
2019-05-30T01:24:49.851Z,9.40
2019-05-30T01:27:20.793Z,9.40
2019-05-30T01:29:51.802Z,9.30
2019-05-30T01:32:31.768Z,9.30
2019-05-30T01:35:03.864Z,9.50
2019-05-30T01:37:34.965Z,9.30
2019-05-30T01:40:08.970Z,9.10
2019-05-30T01:42:40.033Z,8.90
2019-05-30T01:45:11.410Z,8.80
2019-05-30T01:47:42.347Z,8.80
2019-05-30T01:50:13.746Z,8.90
2019-05-30T01:52:44.763Z,8.80
2019-05-30T01:55:15.733Z,8.80
2019-05-30T01:57:46.672Z,8.80
2019-05-30T02:00:21.097Z,8.80
2019-05-30T02:02:51.208Z,8.60
2019-05-30T02:05:22.381Z,8.50
2019-05-30T02:07:53.362Z,8.50
2019-05-30T02:10:24.339Z,8.30
2019-05-30T02:12:55.301Z,8.20
2019-05-30T02:15:26.273Z,8.30
2019-05-30T02:17:57.212Z,8.20
2019-05-30T02:20:28.185Z,8.30
2019-05-30T02:22:59.665Z,8.30
2019-05-30T02:25:30.680Z,8.20
2019-05-30T02:28:02.095Z,8.00
2019-05-30T02:30:33.082Z,7.80
2019-05-30T02:33:05.286Z,7.70
2019-05-30T02:35:36.701Z,7.90
2019-05-30T02:38:09.474Z,7.90
2019-05-30T02:40:40.363Z,7.80
2019-05-30T02:43:12.268Z,7.80
2019-05-30T02:45:43.480Z,7.80
2019-05-30T02:48:14.424Z,7.80
2019-05-30T02:50:45.429Z,7.80
2019-05-30T02:53:16.370Z,7.80
2019-05-30T02:55:48.561Z,7.90
2019-05-30T02:58:19.517Z,7.80
2019-05-30T03:00:50.549Z,7.90
2019-05-30T03:03:21.484Z,7.90
2019-05-30T03:05:52.455Z,8.00
2019-05-30T03:08:23.600Z,8.00
2019-05-30T03:10:54.671Z,8.00
2019-05-30T03:13:25.735Z,8.00
2019-05-30T03:15:56.703Z,7.90
2019-05-30T03:18:27.656Z,8.00
2019-05-30T03:20:58.696Z,7.90
2019-05-30T03:23:29.665Z,7.70
2019-05-30T03:26:02.561Z,7.70
2019-05-30T03:28:34.013Z,7.70
2019-05-30T03:31:13.906Z,7.70
2019-05-30T03:33:42.540Z,7.70
2019-05-30T03:36:26.462Z,7.90
2019-05-30T03:38:45.182Z,7.90
2019-05-30T03:41:16.159Z,7.90
2019-05-30T03:43:47.138Z,7.90
2019-05-30T03:46:28.185Z,8.00
2019-05-30T03:49:04.110Z,7.90
2019-05-30T03:51:36.997Z,8.00
2019-05-30T03:54:09.867Z,8.20
2019-05-30T03:57:04.659Z,8.20
2019-05-30T04:00:00.801Z,8.20
2019-05-30T04:02:57.507Z,8.40
2019-05-30T04:05:29.126Z,8.40
2019-05-30T04:08:02.616Z,8.40
2019-05-30T04:10:36.594Z,8.50
2019-05-30T04:13:31.556Z,8.50
2019-05-30T04:16:02.505Z,8.60
2019-05-30T04:18:33.474Z,8.60
2019-05-30T04:21:04.513Z,8.60
2019-05-30T04:23:36.487Z,8.50
2019-05-30T04:26:07.551Z,8.70
2019-05-30T04:28:38.589Z,8.90
2019-05-30T04:31:10.048Z,9.00
2019-05-30T04:33:41.178Z,8.90
2019-05-30T04:36:12.486Z,9.00
2019-05-30T04:38:43.601Z,8.90
2019-05-30T04:41:16.058Z,9.10
2019-05-30T04:43:47.225Z,9.20
2019-05-30T04:46:19.527Z,9.30
2019-05-30T04:48:50.837Z,9.50
2019-05-30T04:51:22.019Z,9.50
2019-05-30T04:53:53.023Z,9.40
2019-05-30T04:56:23.965Z,9.60
2019-05-30T04:58:55.035Z,9.80
2019-05-30T05:01:25.978Z,10.00
2019-05-30T05:03:56.960Z,10.10
2019-05-30T05:06:27.908Z,10.30
2019-05-30T05:08:58.969Z,10.20
2019-05-30T05:11:30.240Z,10.30
2019-05-30T05:14:01.219Z,10.30
2019-05-30T05:16:35.921Z,10.30
2019-05-30T05:19:05.844Z,10.30
2019-05-30T05:21:36.820Z,10.30
2019-05-30T05:24:07.796Z,10.30
2019-05-30T05:26:38.766Z,10.30
2019-05-30T05:29:09.741Z,10.30
2019-05-30T05:31:40.713Z,10.40
2019-05-30T05:34:11.667Z,10.50
2019-05-30T05:36:42.645Z,10.70
2019-05-30T05:39:13.645Z,10.70
2019-05-30T05:41:44.662Z,10.50
2019-05-30T05:44:16.187Z,10.40
2019-05-30T05:46:47.173Z,10.30
2019-05-30T05:49:18.445Z,10.30
2019-05-30T05:51:49.476Z,10.30
2019-05-30T05:54:20.882Z,10.50
2019-05-30T05:56:51.982Z,10.60
2019-05-30T05:59:23.121Z,10.60
2019-05-30T06:01:54.102Z,10.60
2019-05-30T06:04:25.322Z,10.70
2019-05-30T06:06:56.311Z,10.70
2019-05-30T06:09:27.258Z,10.90
2019-05-30T06:11:58.245Z,11.00
2019-05-30T06:14:29.207Z,11.00
2019-05-30T06:17:00.190Z,11.20
2019-05-30T06:19:45.422Z,11.40
2019-05-30T06:22:03.833Z,11.50
2019-05-30T06:24:34.778Z,11.60
2019-05-30T06:27:05.754Z,11.70
2019-05-30T06:29:36.706Z,11.80
2019-05-30T06:32:08.683Z,11.80
2019-05-30T06:34:40.235Z,11.90
2019-05-30T06:37:12.158Z,12.00
2019-05-30T06:39:43.308Z,12.10
2019-05-30T06:42:14.385Z,12.10
2019-05-30T06:44:45.335Z,12.10
2019-05-30T06:47:16.305Z,12.20
2019-05-30T06:49:47.291Z,12.30
2019-05-30T06:52:18.371Z,12.20
2019-05-30T06:54:49.337Z,12.30
2019-05-30T06:57:21.175Z,12.40
2019-05-30T06:59:52.232Z,12.70
2019-05-30T07:02:24.198Z,12.80
2019-05-30T07:04:55.909Z,13.10
2019-05-30T07:07:27.866Z,13.20
2019-05-30T07:09:59.909Z,13.50
2019-05-30T07:12:31.199Z,13.80
2019-05-30T07:15:03.666Z,14.30
2019-05-30T07:17:39.289Z,14.80
2019-05-30T07:20:13.631Z,14.90
2019-05-30T07:22:44.582Z,15.00
2019-05-30T07:25:15.938Z,15.10
2019-05-30T07:27:46.882Z,15.20
2019-05-30T07:30:18.179Z,15.40
2019-05-30T07:32:49.109Z,15.80
2019-05-30T07:35:20.169Z,15.90
2019-05-30T07:37:51.109Z,15.70
2019-05-30T07:40:22.177Z,15.40
2019-05-30T07:42:53.138Z,15.50
2019-05-30T07:45:24.847Z,15.80
2019-05-30T07:47:55.939Z,15.60
2019-05-30T07:50:28.267Z,15.60
2019-05-30T07:52:59.391Z,15.80
2019-05-30T07:55:31.656Z,15.60
2019-05-30T07:58:02.673Z,15.30
2019-05-30T08:00:33.768Z,15.30
2019-05-30T08:03:04.713Z,15.70
2019-05-30T08:05:35.900Z,16.20
2019-05-30T08:08:06.874Z,16.70
2019-05-30T08:10:38.255Z,16.80
2019-05-30T08:13:09.282Z,17.10
2019-05-30T08:15:44.046Z,17.40
2019-05-30T08:18:12.931Z,17.50
2019-05-30T08:20:45.453Z,17.30
2019-05-30T08:23:16.402Z,17.30
2019-05-30T08:25:47.481Z,17.30
2019-05-30T08:28:18.472Z,17.50
2019-05-30T08:30:50.746Z,17.50
2019-05-30T08:33:21.908Z,17.70
2019-05-30T08:35:52.955Z,17.70
2019-05-30T08:38:23.895Z,18.00
2019-05-30T08:40:54.863Z,18.40
2019-05-30T08:43:25.815Z,18.90
2019-05-30T08:45:56.793Z,18.90
2019-05-30T08:48:27.760Z,19.10
2019-05-30T08:50:58.823Z,19.20
2019-05-30T08:53:32.780Z,19.00
2019-05-30T08:56:04.552Z,19.30
2019-05-30T08:58:36.696Z,19.20
2019-05-30T09:01:08.478Z,18.60
2019-05-30T09:03:40.096Z,18.20
2019-05-30T09:06:11.330Z,18.10
2019-05-30T09:08:42.270Z,18.20
2019-05-30T09:11:13.238Z,18.20
2019-05-30T09:13:44.578Z,18.40
2019-05-30T09:16:16.628Z,18.30
2019-05-30T09:18:47.577Z,18.30
2019-05-30T09:21:18.630Z,18.10
2019-05-30T09:23:49.637Z,18.40
2019-05-30T09:26:20.628Z,19.10
2019-05-30T09:28:51.601Z,19.80
2019-05-30T09:31:22.540Z,20.20
2019-05-30T09:33:53.577Z,20.20
2019-05-30T09:36:24.567Z,19.70
2019-05-30T09:38:55.538Z,19.00
2019-05-30T09:41:26.480Z,18.20
2019-05-30T09:43:57.452Z,17.70
2019-05-30T09:46:28.399Z,17.20
2019-05-30T09:48:59.375Z,16.70
2019-05-30T09:51:31.326Z,16.30
2019-05-30T09:54:02.295Z,16.20
2019-05-30T09:56:33.262Z,15.80
2019-05-30T09:59:04.226Z,15.70
2019-05-30T10:01:35.184Z,15.90
2019-05-30T10:04:06.362Z,17.10
2019-05-30T10:06:37.308Z,19.10
2019-05-30T10:09:10.531Z,19.90
2019-05-30T10:11:45.582Z,19.10
2019-05-30T10:14:16.700Z,18.90
2019-05-30T10:16:52.935Z,19.00
2019-05-30T10:19:20.320Z,19.60
2019-05-30T10:21:52.150Z,20.30
2019-05-30T10:24:24.144Z,20.60
2019-05-30T10:26:55.082Z,20.90
2019-05-30T10:29:26.057Z,21.00
2019-05-30T10:31:57.052Z,21.00
2019-05-30T10:34:28.046Z,20.80
2019-05-30T10:36:58.981Z,21.10
2019-05-30T10:39:29.975Z,20.70
2019-05-30T10:42:01.118Z,21.00
2019-05-30T10:44:32.136Z,21.30
2019-05-30T10:47:03.072Z,21.70
2019-05-30T10:49:35.254Z,22.00
2019-05-30T10:52:07.478Z,21.80
2019-05-30T10:54:38.547Z,22.60
2019-05-30T10:57:09.632Z,24.10
2019-05-30T10:59:40.691Z,24.80
2019-05-30T11:02:11.884Z,26.60
2019-05-30T11:04:43.120Z,26.20
2019-05-30T11:07:34.682Z,25.40
2019-05-30T11:10:15.579Z,25.40
2019-05-30T11:12:46.867Z,26.80
2019-05-30T11:15:19.359Z,28.30
2019-05-30T11:17:52.480Z,28.10
2019-05-30T11:20:22.996Z,29.00
2019-05-30T11:22:54.583Z,29.90
2019-05-30T11:25:25.589Z,30.90
2019-05-30T11:27:56.841Z,30.80
2019-05-30T11:30:28.172Z,31.50
2019-05-30T11:32:59.401Z,33.00
2019-05-30T11:35:31.350Z,32.80
2019-05-30T11:38:03.321Z,32.70
2019-05-30T11:40:34.295Z,32.50
2019-05-30T11:43:05.235Z,31.30
2019-05-30T11:45:36.218Z,29.10
2019-05-30T11:48:07.180Z,26.80
2019-05-30T11:50:38.147Z,24.90
2019-05-30T11:53:09.119Z,24.20
2019-05-30T11:55:40.075Z,24.10
2019-05-30T11:58:11.035Z,23.50
2019-05-30T12:00:41.979Z,22.80
2019-05-30T12:03:12.949Z,23.20
2019-05-30T12:05:44.090Z,23.50
2019-05-30T12:08:16.369Z,23.70
2019-05-30T12:10:47.303Z,22.70
2019-05-30T12:13:19.279Z,21.80
2019-05-30T12:15:51.344Z,21.30
2019-05-30T12:18:22.376Z,20.60
2019-05-30T12:20:53.622Z,19.90
2019-05-30T12:23:24.688Z,20.40
2019-05-30T12:25:55.972Z,22.70
2019-05-30T12:28:26.987Z,25.50
2019-05-30T12:31:02.716Z,26.90
2019-05-30T12:33:30.610Z,27.40
2019-05-30T12:36:02.680Z,28.80
2019-05-30T12:38:33.770Z,29.10
2019-05-30T12:41:04.704Z,29.80
2019-05-30T12:43:35.675Z,29.90
2019-05-30T12:46:06.712Z,29.80
2019-05-30T12:48:37.684Z,30.20
2019-05-30T12:51:08.624Z,29.80
2019-05-30T12:53:41.164Z,28.20
2019-05-30T12:56:12.115Z,26.90
2019-05-30T12:58:43.084Z,25.60
2019-05-30T13:01:14.024Z,23.30
2019-05-30T13:03:44.989Z,22.10
2019-05-30T13:06:15.928Z,21.40
2019-05-30T13:08:46.896Z,21.20
2019-05-30T13:11:17.847Z,20.80
2019-05-30T13:13:49.813Z,20.80
2019-05-30T13:16:20.749Z,21.50
2019-05-30T13:18:51.715Z,23.00
2019-05-30T13:21:22.652Z,22.80
2019-05-30T13:23:53.624Z,22.20
2019-05-30T13:26:24.563Z,22.00
2019-05-30T13:28:56.015Z,22.20
2019-05-30T13:31:27.118Z,21.90
2019-05-30T13:33:58.712Z,21.80
2019-05-30T13:36:29.783Z,21.90
2019-05-30T13:39:01.160Z,22.20
2019-05-30T13:41:33.737Z,22.70
2019-05-30T13:44:06.840Z,23.30
2019-05-30T13:46:37.370Z,23.10
2019-05-30T13:49:08.799Z,22.80
2019-05-30T13:51:39.759Z,22.30
2019-05-30T13:54:10.729Z,22.90
2019-05-30T13:56:41.660Z,22.50
2019-05-30T13:59:12.636Z,22.60
2019-05-30T14:01:43.625Z,22.10
2019-05-30T14:04:14.628Z,20.90
2019-05-30T14:06:45.599Z,19.90
2019-05-30T14:09:16.617Z,19.50
2019-05-30T14:11:47.560Z,19.30
2019-05-30T14:14:19.781Z,19.30
2019-05-30T14:16:50.953Z,19.50
2019-05-30T14:19:25.010Z,20.50
2019-05-30T14:21:54.574Z,20.70
2019-05-30T14:24:25.782Z,20.70
2019-05-30T14:26:56.725Z,20.60
2019-05-30T14:29:28.197Z,21.80
2019-05-30T14:31:59.236Z,24.30
2019-05-30T14:34:30.204Z,26.50
2019-05-30T14:37:02.275Z,26.70
2019-05-30T14:39:33.392Z,26.00
2019-05-30T14:42:05.009Z,24.10
2019-05-30T14:44:36.092Z,23.30
2019-05-30T14:47:08.121Z,23.70
2019-05-30T14:49:39.383Z,24.00
2019-05-30T14:52:11.763Z,22.60
2019-05-30T14:54:43.201Z,22.20
2019-05-30T14:57:14.159Z,22.60
2019-05-30T14:59:45.120Z,22.40
2019-05-30T15:02:16.068Z,21.80
2019-05-30T15:04:47.029Z,21.40
2019-05-30T15:07:17.968Z,20.80
2019-05-30T15:09:48.940Z,20.70
2019-05-30T15:12:19.880Z,20.30
2019-05-30T15:14:50.852Z,20.40
2019-05-30T15:17:21.799Z,20.50
2019-05-30T15:19:51.897Z,21.20
2019-05-30T15:22:22.703Z,22.20
2019-05-30T15:24:53.678Z,22.60
2019-05-30T15:27:24.635Z,21.60
2019-05-30T15:29:55.670Z,20.80
2019-05-30T15:32:26.613Z,20.50
2019-05-30T15:34:57.587Z,20.20
2019-05-30T15:37:28.526Z,20.10
2019-05-30T15:39:59.503Z,20.10
2019-05-30T15:42:30.444Z,20.10
2019-05-30T15:45:01.417Z,20.00
2019-05-30T15:47:32.356Z,19.90
2019-05-30T15:50:03.330Z,19.80
2019-05-30T15:52:34.279Z,19.70
2019-05-30T15:55:07.545Z,19.40
2019-05-30T15:57:38.515Z,19.30
2019-05-30T16:00:14.090Z,19.10
2019-05-30T16:02:46.260Z,19.00
2019-05-30T16:05:18.681Z,19.00
2019-05-30T16:07:49.756Z,18.90
2019-05-30T16:10:21.063Z,18.90
2019-05-30T16:12:52.157Z,19.00
2019-05-30T16:15:23.120Z,19.20
2019-05-30T16:17:54.092Z,19.60
2019-05-30T16:20:25.034Z,19.70
2019-05-30T16:22:56.008Z,19.70
2019-05-30T16:25:26.962Z,20.50
2019-05-30T16:27:57.956Z,21.90
2019-05-30T16:30:28.952Z,23.10
2019-05-30T16:32:59.921Z,23.70
2019-05-30T16:35:30.866Z,24.90
2019-05-30T16:38:01.857Z,25.70
2019-05-30T16:40:32.802Z,25.70
2019-05-30T16:43:03.773Z,25.80
2019-05-30T16:45:34.761Z,26.40
2019-05-30T16:48:05.833Z,27.00
2019-05-30T16:50:36.825Z,27.60
2019-05-30T16:53:07.790Z,27.40
2019-05-30T16:55:38.728Z,27.40
2019-05-30T16:58:09.695Z,26.90
2019-05-30T17:00:40.633Z,26.80
2019-05-30T17:03:11.600Z,27.20
2019-05-30T17:05:42.537Z,27.90
2019-05-30T17:08:13.527Z,28.20
2019-05-30T17:10:45.461Z,28.50
2019-05-30T17:13:17.676Z,28.40
2019-05-30T17:15:48.739Z,28.30
2019-05-30T17:18:20.257Z,28.40
2019-05-30T17:20:51.320Z,27.90
2019-05-30T17:23:22.745Z,27.00
2019-05-30T17:25:53.762Z,25.70
2019-05-30T17:28:24.730Z,24.80
2019-05-30T17:30:55.663Z,24.10
2019-05-30T17:33:26.817Z,23.10
2019-05-30T17:35:59.797Z,22.20
2019-05-30T17:38:30.774Z,21.40
2019-05-30T17:41:01.707Z,20.70
2019-05-30T17:43:32.700Z,20.30
2019-05-30T17:46:03.646Z,19.90
2019-05-30T17:48:35.617Z,19.60
2019-05-30T17:51:06.555Z,19.40
2019-05-30T17:53:37.836Z,19.30
2019-05-30T17:56:08.778Z,19.10
2019-05-30T17:58:39.749Z,19.00
2019-05-30T18:01:10.700Z,18.70
2019-05-30T18:03:41.679Z,18.60
2019-05-30T18:06:12.612Z,18.40
2019-05-30T18:08:43.586Z,18.10
2019-05-30T18:11:14.523Z,17.80
2019-05-30T18:13:45.489Z,17.80
2019-05-30T18:16:16.427Z,17.70
2019-05-30T18:18:47.407Z,17.70
2019-05-30T18:21:18.353Z,17.50
2019-05-30T18:23:49.327Z,17.30
2019-05-30T18:26:21.373Z,17.00
2019-05-30T18:28:52.534Z,16.90
2019-05-30T18:31:23.875Z,16.70
2019-05-30T18:33:54.838Z,16.50
2019-05-30T18:36:26.312Z,16.40
2019-05-30T18:38:57.314Z,16.20
2019-05-30T18:41:28.795Z,16.10
2019-05-30T18:43:59.812Z,15.90
2019-05-30T18:46:31.210Z,15.70
2019-05-30T18:49:02.216Z,15.50
2019-05-30T18:51:33.193Z,15.30
2019-05-30T18:54:04.132Z,15.00
2019-05-30T18:56:35.109Z,14.70
2019-05-30T18:59:06.083Z,14.50
2019-05-30T19:01:37.921Z,14.50
2019-05-30T19:04:09.133Z,14.40
2019-05-30T19:06:40.098Z,14.40
2019-05-30T19:09:12.071Z,14.20
2019-05-30T19:11:43.017Z,14.20
2019-05-30T19:14:14.018Z,14.10
2019-05-30T19:16:45.017Z,14.10
2019-05-30T19:19:15.994Z,14.10
2019-05-30T19:21:46.962Z,13.90
2019-05-30T19:24:17.984Z,13.90
2019-05-30T19:26:48.922Z,13.80
2019-05-30T19:29:19.910Z,13.70
2019-05-30T19:31:50.953Z,13.80
2019-05-30T19:34:21.947Z,13.80
2019-05-30T19:36:52.896Z,13.70
2019-05-30T19:39:23.871Z,13.60
2019-05-30T19:41:58.349Z,13.50
2019-05-30T19:44:27.971Z,13.50
2019-05-30T19:46:58.935Z,13.50
2019-05-30T19:49:30.372Z,13.50
2019-05-30T19:52:01.431Z,13.60
2019-05-30T19:54:33.106Z,13.60
2019-05-30T19:57:04.176Z,13.80
2019-05-30T19:59:36.254Z,14.00
2019-05-30T20:02:07.485Z,14.00
2019-05-30T20:04:38.465Z,13.80
2019-05-30T20:07:09.919Z,13.70
2019-05-30T20:09:40.890Z,13.70
2019-05-30T20:12:11.907Z,13.60
2019-05-30T20:14:43.851Z,13.50
2019-05-30T20:17:14.828Z,13.50
2019-05-30T20:19:45.772Z,13.60
2019-05-30T20:22:16.750Z,13.50
2019-05-30T20:24:47.684Z,13.40
2019-05-30T20:27:18.663Z,13.10
2019-05-30T20:29:49.615Z,12.90
2019-05-30T20:32:20.607Z,12.70
2019-05-30T20:34:51.537Z,12.60
2019-05-30T20:37:22.525Z,12.40
2019-05-30T20:39:53.464Z,12.20
2019-05-30T20:42:24.490Z,12.20
2019-05-30T20:44:55.444Z,12.10
2019-05-30T20:47:26.416Z,12.00
2019-05-30T20:49:57.355Z,12.00
2019-05-30T20:52:28.553Z,12.00
2019-05-30T20:54:59.564Z,12.00
2019-05-30T20:57:30.642Z,11.90
2019-05-30T21:00:01.600Z,11.90
2019-05-30T21:02:34.631Z,11.90
2019-05-30T21:05:08.759Z,11.80
2019-05-30T21:07:40.171Z,11.70
2019-05-30T21:10:12.128Z,11.70
2019-05-30T21:12:47.778Z,11.80
2019-05-30T21:15:18.188Z,11.80
2019-05-30T21:17:49.157Z,11.80
2019-05-30T21:20:20.301Z,11.80
2019-05-30T21:22:51.286Z,11.80
2019-05-30T21:25:22.307Z,11.90
2019-05-30T21:27:53.339Z,11.80
2019-05-30T21:30:24.277Z,11.80
2019-05-30T21:32:55.353Z,11.80
2019-05-30T21:35:26.746Z,11.60
2019-05-30T21:37:57.813Z,11.70
2019-05-30T21:40:28.748Z,11.60
2019-05-30T21:43:06.400Z,11.50
2019-05-30T21:45:32.351Z,11.50
2019-05-30T21:48:03.319Z,11.30
2019-05-30T21:50:34.254Z,11.20
2019-05-30T21:53:05.321Z,11.10
2019-05-30T21:55:36.266Z,11.10
2019-05-30T21:58:07.307Z,11.10
2019-05-30T22:00:51.794Z,11.10
2019-05-30T22:03:22.764Z,11.00
2019-05-30T22:05:53.699Z,11.00
2019-05-30T22:08:24.679Z,11.00
2019-05-30T22:10:55.682Z,10.90
2019-05-30T22:13:26.650Z,10.80
2019-05-30T22:15:57.592Z,10.80
2019-05-30T22:18:28.554Z,10.70
2019-05-30T22:20:59.491Z,10.50
2019-05-30T22:23:30.467Z,10.40
2019-05-30T22:26:01.390Z,10.60
2019-05-30T22:28:32.364Z,10.60
2019-05-30T22:31:03.301Z,10.60
2019-05-30T22:33:34.272Z,10.60
2019-05-30T22:36:05.214Z,10.60
2019-05-30T22:38:36.187Z,10.50
2019-05-30T22:41:07.122Z,10.40
2019-05-30T22:43:38.129Z,10.40
2019-05-30T22:46:09.134Z,10.40
2019-05-30T22:48:40.102Z,10.50
2019-05-30T22:51:11.040Z,10.40
2019-05-30T22:53:42.054Z,10.40
2019-05-30T22:56:14.031Z,10.30
2019-05-30T22:58:45.552Z,10.30
2019-05-30T23:01:16.561Z,10.40
2019-05-30T23:03:47.548Z,10.50
2019-05-30T23:06:18.481Z,10.40
2019-05-30T23:08:50.496Z,10.30
2019-05-30T23:11:21.464Z,10.30
2019-05-30T23:13:52.427Z,10.40
2019-05-30T23:16:23.392Z,10.50
2019-05-30T23:18:54.762Z,10.60
2019-05-30T23:21:25.905Z,10.70
2019-05-30T23:23:57.263Z,10.80
2019-05-30T23:26:28.398Z,10.80
2019-05-30T23:28:59.331Z,10.80
2019-05-30T23:31:30.303Z,10.80
2019-05-30T23:34:01.247Z,10.70
2019-05-30T23:36:32.212Z,10.70
2019-05-30T23:39:03.150Z,10.60
2019-05-30T23:41:35.823Z,10.60
2019-05-30T23:44:11.435Z,10.70
2019-05-30T23:46:39.433Z,10.60
2019-05-30T23:49:10.385Z,10.60
2019-05-30T23:51:41.551Z,10.60
2019-05-30T23:54:12.484Z,10.60
2019-05-30T23:56:43.457Z,10.60
2019-05-30T23:59:14.483Z,10.60
